PWSweather.com
Personal Weather Stations
Station Observations
BLACKWELL
Blackwell, AlfretonGB DE55

BlackwellAlfretonGB DE55

Lat: 53.12076, Lon: -1.354978

Elevation: 410

Station Type: Vantage Pro

High Low Average
Temperature 51.1°F10.6°C 40.3°F4.6°C 46.1°F7.8°C
Dew Point 48.2°F9.0°C 36.0°F2.2°C 41.5°F5.3°C
Winds 10.0 mph 16.1 kmh Calm Calm 3.0 mph SW4.8 kmh SW
Wind Gusts 21.0 mph33.8 kmh 1.0 mph1.6 kmh 9.0 mph14.5 kmh
Humidity 96% 73% 84%
Pressure 29.54 in1000.3 mb 28.95 in980.4 mb -
Precipitation 0.20 in5.1 mm - -
Hour Temp Dew Point Humidity Winds Wind Gusts Pressure Precip Precip Rate Daily Precip Total
12:44 AM 45.5°F7.5°C 39.4°F4.1°C 79% 3.0 mph SW4.8 kmh SW 9.0 mph14.5 kmh 29.54 in1000.3 mb 0.00 in0.0 mm 0.00 in0.0 mm 0.00 in0.0 mm
01:44 AM 44.6°F7.0°C 38.8°F3.8°C 80% 4.0 mph WSW6.4 kmh WSW 9.0 mph14.5 kmh 29.53 in1000.0 mb 0.00 in0.0 mm 0.00 in0.0 mm 0.00 in0.0 mm
02:44 AM 43.5°F6.4°C 38.1°F3.4°C 81% 3.0 mph WSW4.8 kmh WSW 9.0 mph14.5 kmh 29.50 in999.0 mb 0.00 in0.0 mm 0.00 in0.0 mm 0.00 in0.0 mm
03:44 AM 43.3°F6.3°C 38.3°F3.5°C 82% 3.0 mph WSW4.8 kmh WSW 9.0 mph14.5 kmh 29.51 in999.3 mb 0.00 in0.0 mm 0.00 in0.0 mm 0.00 in0.0 mm
04:44 AM 43.9°F6.6°C 38.5°F3.6°C 81% 3.0 mph WSW4.8 kmh WSW 7.0 mph11.3 kmh 29.49 in998.6 mb 0.00 in0.0 mm 0.00 in0.0 mm 0.00 in0.0 mm
05:44 AM 44.4°F6.9°C 39.0°F3.9°C 81% 2.0 mph WSW3.2 kmh WSW 7.0 mph11.3 kmh 29.49 in998.6 mb 0.00 in0.0 mm 0.00 in0.0 mm 0.00 in0.0 mm
06:44 AM 45.1°F7.3°C 39.4°F4.1°C 80% 4.0 mph WSW6.4 kmh WSW 10.0 mph16.1 kmh 29.48 in998.3 mb 0.00 in0.0 mm 0.00 in0.0 mm 0.00 in0.0 mm
07:44 AM 45.0°F7.2°C 39.6°F4.2°C 81% 3.0 mph WSW4.8 kmh WSW 9.0 mph14.5 kmh 29.47 in998.0 mb 0.00 in0.0 mm 0.00 in0.0 mm 0.00 in0.0 mm
08:44 AM 45.5°F7.5°C 40.3°F4.6°C 82% 1.0 mph WSW1.6 kmh WSW 7.0 mph11.3 kmh 29.47 in998.0 mb 0.00 in0.0 mm 0.00 in0.0 mm 0.00 in0.0 mm
09:44 AM 45.7°F7.6°C 41.0°F5.0°C 84% 1.0 mph WSW1.6 kmh WSW 6.0 mph9.7 kmh 29.45 in997.3 mb 0.00 in0.0 mm 0.00 in0.0 mm 0.00 in0.0 mm
10:44 AM 46.2°F7.9°C 43.3°F6.3°C 90% 1.0 mph WSW1.6 kmh WSW 4.0 mph6.4 kmh 29.42 in996.3 mb 0.01 in0.3 mm 0.00 in0.0 mm 0.01 in0.3 mm
11:44 AM 46.0°F7.8°C 41.9°F5.5°C 85% 1.0 mph WSW1.6 kmh WSW 6.0 mph9.7 kmh 29.39 in995.3 mb 0.00 in0.0 mm 0.00 in0.0 mm 0.01 in0.3 mm
12:44 PM 46.0°F7.8°C 43.9°F6.6°C 93% Calm Calm 2.0 mph3.2 kmh 29.35 in993.9 mb 0.00 in0.0 mm 0.00 in0.0 mm 0.01 in0.3 mm
01:44 PM 46.8°F8.2°C 45.5°F7.5°C 95% Calm Calm 1.0 mph1.6 kmh 29.29 in991.9 mb 0.02 in0.5 mm 0.00 in0.0 mm 0.02 in0.5 mm
02:45 PM 48.4°F9.1°C 47.3°F8.5°C 96% Calm Calm 2.0 mph3.2 kmh 29.21 in989.2 mb 0.05 in1.3 mm 1.80 in45.7 mm 0.07 in1.8 mm
03:44 PM 49.5°F9.7°C 47.8°F8.8°C 94% 3.0 mph S4.8 kmh S 11.0 mph17.7 kmh 29.15 in987.1 mb 0.12 in3.0 mm 4.20 in106.7 mm 0.19 in4.8 mm
04:44 PM 49.3°F9.6°C 47.7°F8.7°C 94% 4.0 mph SSW6.4 kmh SSW 14.0 mph22.5 kmh 29.08 in984.8 mb 0.01 in0.3 mm 0.00 in0.0 mm 0.20 in5.1 mm
05:44 PM 50.4°F10.2°C 48.2°F9.0°C 92% 4.0 mph S6.4 kmh S 11.0 mph17.7 kmh 29.02 in982.7 mb 0.00 in0.0 mm 0.00 in0.0 mm 0.20 in5.1 mm
06:44 PM 51.1°F10.6°C 43.7°F6.5°C 76% 9.0 mph WSW14.5 kmh WSW 21.0 mph33.8 kmh 29.00 in982.1 mb 0.00 in0.0 mm 0.00 in0.0 mm 0.20 in5.1 mm
07:44 PM 48.7°F9.3°C 42.3°F5.7°C 78% 4.0 mph WSW6.4 kmh WSW 13.0 mph20.9 kmh 28.99 in981.7 mb 0.00 in0.0 mm 0.00 in0.0 mm 0.20 in5.1 mm
08:44 PM 48.0°F8.9°C 40.8°F4.9°C 76% 6.0 mph WSW9.7 kmh WSW 16.0 mph25.7 kmh 28.96 in980.7 mb 0.00 in0.0 mm 0.00 in0.0 mm 0.20 in5.1 mm
09:44 PM 47.1°F8.4°C 39.0°F3.9°C 73% 10.0 mph WSW16.1 kmh WSW 19.0 mph30.6 kmh 28.95 in980.4 mb 0.00 in0.0 mm 0.00 in0.0 mm 0.20 in5.1 mm
10:44 PM 41.5°F5.3°C 36.0°F2.2°C 80% 5.0 mph SW8.0 kmh SW 11.0 mph17.7 kmh 28.99 in981.7 mb 0.00 in0.0 mm 0.00 in0.0 mm 0.20 in5.1 mm
11:44 PM 40.3°F4.6°C 36.5°F2.5°C 86% 4.0 mph SW6.4 kmh SW 10.0 mph16.1 kmh 29.02 in982.7 mb 0.00 in0.0 mm 0.00 in0.0 mm 0.20 in5.1 mm